createdAt,value
2018-05-01T02:00:19.026Z,12.05
2018-05-01T02:00:23.263Z,11.96
2018-05-01T02:00:27.364Z,12.01
2018-05-01T02:00:31.583Z,12
2018-05-01T02:00:35.690Z,12
2018-05-01T02:00:39.790Z,11.98
2018-05-01T02:00:43.997Z,12.03
2018-05-01T02:00:48.106Z,12.04
2018-05-01T02:00:52.424Z,11.98
2018-05-01T02:00:56.628Z,11.97
2018-05-01T02:01:00.955Z,12.03
2018-05-01T02:01:04.845Z,11.98
2018-05-01T02:01:08.946Z,12.05
2018-05-01T02:01:13.263Z,11.97
2018-05-01T02:01:17.471Z,11.88
2018-05-01T02:01:21.786Z,12.01
2018-05-01T02:01:26.000Z,12
2018-05-01T02:01:29.997Z,11.97
2018-05-01T02:01:34.312Z,11.94
2018-05-01T02:01:38.640Z,12.05
2018-05-01T02:01:42.856Z,12
2018-05-01T02:01:47.083Z,12.03
2018-05-01T02:01:51.190Z,11.93
2018-05-01T02:01:55.400Z,12.07
2018-05-01T02:01:59.496Z,12.04
2018-05-01T02:02:03.596Z,11.98
2018-05-01T02:02:07.699Z,12.01
2018-05-01T02:02:12.015Z,12.03
2018-05-01T02:02:16.330Z,12.03
2018-05-01T02:02:20.649Z,11.98
2018-05-01T02:02:24.862Z,12.04
2018-05-01T02:02:29.179Z,12.03
2018-05-01T02:02:33.500Z,11.98
2018-05-01T02:02:37.708Z,11.97
2018-05-01T02:02:41.698Z,12
2018-05-01T02:02:45.807Z,12.03
2018-05-01T02:02:50.024Z,12.01
2018-05-01T02:02:54.230Z,12.04
2018-05-01T02:02:58.442Z,12.03
2018-05-01T02:03:02.538Z,12.05
2018-05-01T02:03:06.650Z,12.04
2018-05-01T02:03:10.965Z,12
2018-05-01T02:03:15.279Z,12.04
2018-05-01T02:03:19.484Z,12.04
2018-05-01T02:03:23.700Z,12
2018-05-01T02:03:27.804Z,12.03
2018-05-01T02:03:32.020Z,11.98
2018-05-01T02:03:36.421Z,12
2018-05-01T02:03:40.641Z,12.11
2018-05-01T02:03:44.754Z,12.05
2018-05-01T02:03:48.973Z,12
2018-05-01T02:03:53.288Z,12
2018-05-01T02:03:57.492Z,12.03
2018-05-01T02:04:01.809Z,12
2018-05-01T02:04:06.017Z,12
2018-05-01T02:04:10.346Z,12.03
2018-05-01T02:04:14.555Z,12.03
2018-05-01T02:04:18.875Z,12.01
2018-05-01T02:04:23.188Z,12.03
2018-05-01T02:04:27.397Z,12.03
2018-05-01T02:04:31.505Z,12.03
2018-05-01T02:04:35.828Z,12.03
2018-05-01T02:04:39.819Z,12
2018-05-01T02:04:44.139Z,11.98
2018-05-01T02:04:48.458Z,12.04
2018-05-01T02:04:52.788Z,11.98
2018-05-01T02:04:57.001Z,12.03
2018-05-01T02:05:01.212Z,12.04
2018-05-01T02:05:05.320Z,12.04
2018-05-01T02:05:09.426Z,12.05
2018-05-01T02:05:13.739Z,12.01
2018-05-01T02:05:17.945Z,12
2018-05-01T02:05:22.268Z,12.01
2018-05-01T02:05:26.154Z,12.03
2018-05-01T02:05:30.367Z,12
2018-05-01T02:05:34.471Z,12.04
2018-05-01T02:05:38.789Z,11.96
2018-05-01T02:05:43.105Z,12.04
2018-05-01T02:05:47.317Z,12.04
2018-05-01T02:05:51.525Z,12.03
2018-05-01T02:05:55.625Z,12.12
2018-05-01T02:05:59.734Z,11.98
2018-05-01T02:06:04.169Z,12.07
2018-05-01T02:06:08.493Z,12.01
2018-05-01T02:06:12.598Z,12
2018-05-01T02:06:16.806Z,12.01
2018-05-01T02:06:21.022Z,12.08
2018-05-01T02:06:25.122Z,12.03
2018-05-01T02:06:29.332Z,12.03
2018-05-01T02:06:33.667Z,12.05
2018-05-01T02:06:37.886Z,12.01
2018-05-01T02:06:42.093Z,12.05
2018-05-01T02:06:46.430Z,12.03
2018-05-01T02:06:50.649Z,11.98
2018-05-01T02:06:54.982Z,11.98
2018-05-01T02:06:59.201Z,12.08
2018-05-01T02:07:03.202Z,12.08
2018-05-01T02:07:07.523Z,12.01
2018-05-01T02:07:11.522Z,12.16
2018-05-01T02:07:15.623Z,12.04
2018-05-01T02:07:19.729Z,12.08
2018-05-01T02:07:23.828Z,12.08
2018-05-01T02:07:28.037Z,12.03
2018-05-01T02:07:32.240Z,12.11
2018-05-01T02:07:36.462Z,12.05
2018-05-01T02:07:40.672Z,12
2018-05-01T02:07:44.772Z,12
2018-05-01T02:07:49.172Z,12.11
2018-05-01T02:07:53.377Z,12.03
2018-05-01T02:07:57.700Z,12.03
2018-05-01T02:08:01.800Z,12.04
2018-05-01T02:08:06.172Z,12
2018-05-01T02:08:10.273Z,12.15
2018-05-01T02:08:14.478Z,12.11
2018-05-01T02:08:18.794Z,12.04
2018-05-01T02:08:23.003Z,12.08
2018-05-01T02:08:27.213Z,12.01
2018-05-01T02:08:31.530Z,12.07
2018-05-01T02:08:35.743Z,12
2018-05-01T02:08:39.954Z,12.08
2018-05-01T02:08:44.175Z,12.05
2018-05-01T02:08:48.497Z,12.01
2018-05-01T02:08:52.808Z,12.05
2018-05-01T02:08:57.132Z,12.13
2018-05-01T02:09:01.335Z,12.04
2018-05-01T02:09:05.546Z,12.12
2018-05-01T02:09:09.752Z,12.07
2018-05-01T02:09:14.069Z,12.01
2018-05-01T02:09:18.277Z,12.16
2018-05-01T02:09:22.503Z,12.04
2018-05-01T02:09:26.495Z,12.11
2018-05-01T02:09:30.701Z,12.15
2018-05-01T02:09:34.909Z,12.15
2018-05-01T02:09:39.026Z,12.16
2018-05-01T02:09:43.236Z,12
2018-05-01T02:09:47.561Z,12.05
2018-05-01T02:09:51.878Z,12.05
2018-05-01T02:09:56.161Z,12.01
2018-05-01T02:10:00.476Z,12.05
2018-05-01T02:10:04.585Z,12.01
2018-05-01T02:10:08.799Z,12.03
2018-05-01T02:10:12.906Z,12.08
2018-05-01T02:10:17.121Z,12.13
2018-05-01T02:10:21.392Z,12.13
2018-05-01T02:10:25.491Z,12.05
2018-05-01T02:10:29.697Z,12.01
2018-05-01T02:10:34.009Z,12.07
2018-05-01T02:10:38.220Z,12.15
2018-05-01T02:10:42.429Z,12.04
2018-05-01T02:10:46.747Z,12.05
2018-05-01T02:10:51.061Z,12.07
2018-05-01T02:10:55.376Z,12.03
2018-05-01T02:10:59.689Z,12.01
2018-05-01T02:11:03.797Z,12.07
2018-05-01T02:11:08.011Z,12.13
2018-05-01T02:11:12.337Z,12.04
2018-05-01T02:11:16.444Z,12.16
2018-05-01T02:11:20.770Z,12.15
2018-05-01T02:11:24.871Z,12.15
2018-05-01T02:11:29.187Z,12.11
2018-05-01T02:11:33.511Z,12.08
2018-05-01T02:11:37.504Z,12.13
2018-05-01T02:11:41.606Z,12.05
2018-05-01T02:11:45.927Z,12.15
2018-05-01T02:11:50.034Z,12.13
2018-05-01T02:11:54.351Z,12.11
2018-05-01T02:11:58.670Z,12.12
2018-05-01T02:12:02.927Z,12.19
2018-05-01T02:12:06.925Z,12.12
2018-05-01T02:12:11.133Z,12.12
2018-05-01T02:12:15.260Z,12.11
2018-05-01T02:12:19.573Z,12.04
2018-05-01T02:12:23.872Z,12.13
2018-05-01T02:12:27.868Z,12.11
2018-05-01T02:12:32.189Z,12.05
2018-05-01T02:12:36.506Z,12.12
2018-05-01T02:12:40.505Z,12.12
2018-05-01T02:12:44.603Z,12.07
2018-05-01T02:12:48.816Z,12.03
2018-05-01T02:12:52.913Z,12.13
2018-05-01T02:12:57.023Z,12.07
2018-05-01T02:13:01.334Z,12.05
2018-05-01T02:13:05.775Z,12.07
2018-05-01T02:13:10.094Z,12.08
2018-05-01T02:13:14.417Z,12.11
2018-05-01T02:13:18.516Z,12.11
2018-05-01T02:13:22.909Z,12.08
2018-05-01T02:13:27.230Z,12.11
2018-05-01T02:13:31.545Z,12.12
2018-05-01T02:13:35.772Z,12.13
2018-05-01T02:13:39.984Z,12.13
2018-05-01T02:13:44.086Z,12.04
2018-05-01T02:13:48.299Z,12.08
2018-05-01T02:13:52.514Z,12.11
2018-05-01T02:13:56.726Z,12
2018-05-01T02:14:01.049Z,12.11
2018-05-01T02:14:05.181Z,12.16
2018-05-01T02:14:09.482Z,12.12
2018-05-01T02:14:13.805Z,12.07
2018-05-01T02:14:18.011Z,12.11
2018-05-01T02:14:22.329Z,12.08
2018-05-01T02:14:26.219Z,12.12
2018-05-01T02:14:30.214Z,12.13
2018-05-01T02:14:34.315Z,12.11
2018-05-01T02:14:38.630Z,12.07
2018-05-01T02:14:42.959Z,12.12
2018-05-01T02:14:47.066Z,12.08
2018-05-01T02:14:51.067Z,12.13
2018-05-01T02:14:55.387Z,12.11
2018-05-01T02:14:59.594Z,12.13
2018-05-01T02:15:03.715Z,12.15
2018-05-01T02:15:07.713Z,12.11
2018-05-01T02:15:12.034Z,11.98
2018-05-01T02:15:16.143Z,12.03
2018-05-01T02:15:20.350Z,12.16
2018-05-01T02:15:24.662Z,12.07
2018-05-01T02:15:28.947Z,12.15
2018-05-01T02:15:33.153Z,12.15
2018-05-01T02:15:37.360Z,12.12
2018-05-01T02:15:41.471Z,12.08
2018-05-01T02:15:45.575Z,12.07
2018-05-01T02:15:49.798Z,12.11
2018-05-01T02:15:53.901Z,12.08
2018-05-01T02:15:58.215Z,12.12
2018-05-01T02:16:02.425Z,12.08
2018-05-01T02:16:06.528Z,12.15
2018-05-01T02:16:10.733Z,12.16
2018-05-01T02:16:15.051Z,12.11
2018-05-01T02:16:19.257Z,12.01
2018-05-01T02:16:23.463Z,12.08
2018-05-01T02:16:27.776Z,12.05
2018-05-01T02:16:31.992Z,12.12
2018-05-01T02:16:36.280Z,12.15
2018-05-01T02:16:40.603Z,12.13
2018-05-01T02:16:44.595Z,12.07
2018-05-01T02:16:48.909Z,12.12
2018-05-01T02:16:53.117Z,12.04
2018-05-01T02:16:57.340Z,12.11
2018-05-01T02:17:01.558Z,12.07
2018-05-01T02:17:05.666Z,12.08
2018-05-01T02:17:09.875Z,12.11
2018-05-01T02:17:14.188Z,12.08
2018-05-01T02:17:18.187Z,12.11
2018-05-01T02:17:22.507Z,12.03
2018-05-01T02:17:26.498Z,12.13
2018-05-01T02:17:30.707Z,12.12
2018-05-01T02:17:34.911Z,12.15
2018-05-01T02:17:39.229Z,12.03
2018-05-01T02:17:43.544Z,12.12
2018-05-01T02:17:47.754Z,12.13
2018-05-01T02:17:52.076Z,12
2018-05-01T02:17:56.282Z,12.05
2018-05-01T02:18:00.490Z,12.08
2018-05-01T02:18:04.710Z,12.03
2018-05-01T02:18:08.815Z,12.11
2018-05-01T02:18:13.139Z,12.12
2018-05-01T02:18:17.241Z,12.16
2018-05-01T02:18:21.561Z,12.15
2018-05-01T02:18:25.772Z,12.03
2018-05-01T02:18:29.986Z,12.11
2018-05-01T02:18:34.195Z,12.11
2018-05-01T02:18:38.300Z,12.07
2018-05-01T02:18:42.503Z,12.04
2018-05-01T02:18:46.496Z,11.98
2018-05-01T02:18:50.495Z,12.16
2018-05-01T02:18:54.703Z,12.15
2018-05-01T02:18:59.020Z,12.08
2018-05-01T02:19:03.379Z,12.04
2018-05-01T02:19:07.374Z,12.19
2018-05-01T02:19:11.694Z,12.01
2018-05-01T02:19:15.907Z,12.07
2018-05-01T02:19:20.112Z,12.13
2018-05-01T02:19:24.432Z,12.12
2018-05-01T02:19:28.527Z,12.12
2018-05-01T02:19:32.845Z,12.12
2018-05-01T02:19:37.067Z,12.08
2018-05-01T02:19:41.386Z,12.12
2018-05-01T02:19:45.725Z,12.16
2018-05-01T02:19:50.046Z,12.16
2018-05-01T02:19:54.118Z,12.08
2018-05-01T02:19:58.336Z,12.08
2018-05-01T02:20:02.550Z,12.13
2018-05-01T02:20:06.764Z,12.12
2018-05-01T02:20:10.975Z,12.03
2018-05-01T02:20:15.301Z,12.16
2018-05-01T02:20:19.505Z,12.12
2018-05-01T02:20:23.611Z,12.01
2018-05-01T02:20:27.936Z,12.08
2018-05-01T02:20:32.253Z,12.12
2018-05-01T02:20:36.361Z,12.12
2018-05-01T02:20:40.366Z,12.11
2018-05-01T02:20:44.689Z,12.01
2018-05-01T02:20:48.896Z,12.15
2018-05-01T02:20:52.996Z,12.05
2018-05-01T02:20:57.206Z,12.16
2018-05-01T02:21:01.526Z,12.12
2018-05-01T02:21:05.627Z,12.07
2018-05-01T02:21:09.726Z,12.12
2018-05-01T02:21:14.044Z,12.07
2018-05-01T02:21:18.148Z,12.08
2018-05-01T02:21:22.354Z,12.16
2018-05-01T02:21:26.564Z,12.08
2018-05-01T02:21:30.770Z,12.08
2018-05-01T02:21:34.987Z,12.16
2018-05-01T02:21:39.307Z,12.08
2018-05-01T02:21:43.420Z,12.08
2018-05-01T02:21:47.520Z,12.15
2018-05-01T02:21:51.843Z,12.15
2018-05-01T02:21:56.163Z,12.08
2018-05-01T02:22:00.481Z,12.15
2018-05-01T02:22:04.691Z,12.11
2018-05-01T02:22:08.798Z,12.04
2018-05-01T02:22:12.910Z,12.16
2018-05-01T02:22:17.116Z,12.08
2018-05-01T02:22:21.459Z,12.16
2018-05-01T02:22:25.668Z,12.11
2018-05-01T02:22:29.988Z,12.03
2018-05-01T02:22:34.307Z,12.15
2018-05-01T02:22:38.525Z,12.12
2018-05-01T02:22:42.727Z,12.08
2018-05-01T02:22:47.070Z,12.15
2018-05-01T02:22:51.275Z,12.08
2018-05-01T02:22:55.588Z,12.12
2018-05-01T02:22:59.796Z,12.16
2018-05-01T02:23:04.130Z,12.01
2018-05-01T02:23:08.236Z,12.03
2018-05-01T02:23:12.449Z,12.12
2018-05-01T02:23:16.764Z,12.03
2018-05-01T02:23:20.974Z,12.08
2018-05-01T02:23:25.304Z,12.15
2018-05-01T02:23:29.520Z,12.16
2018-05-01T02:23:33.731Z,12.13
2018-05-01T02:23:37.938Z,12.05
2018-05-01T02:23:42.162Z,12.08
2018-05-01T02:23:46.374Z,12.04
2018-05-01T02:23:50.578Z,12.04
2018-05-01T02:23:54.904Z,12.12
2018-05-01T02:23:59.115Z,12.08
2018-05-01T02:24:03.111Z,12.12
2018-05-01T02:24:07.120Z,12.01
2018-05-01T02:24:11.337Z,12.04
2018-05-01T02:24:15.545Z,12.05
2018-05-01T02:24:19.646Z,12.13
2018-05-01T02:24:23.964Z,12
2018-05-01T02:24:28.104Z,12.04
2018-05-01T02:24:32.325Z,12.16
2018-05-01T02:24:36.638Z,12.12
2018-05-01T02:24:40.972Z,12.11
2018-05-01T02:24:45.185Z,12.08
2018-05-01T02:24:49.178Z,12.04
2018-05-01T02:24:53.518Z,12.12
2018-05-01T02:24:57.840Z,12.12
2018-05-01T02:25:02.053Z,12.04
2018-05-01T02:25:06.051Z,12.12
2018-05-01T02:25:10.260Z,12.15
2018-05-01T02:25:14.483Z,12.13
2018-05-01T02:25:18.800Z,12.05
2018-05-01T02:25:23.023Z,12.07
2018-05-01T02:25:27.235Z,12
2018-05-01T02:25:31.443Z,12.08
2018-05-01T02:25:35.772Z,12.05
2018-05-01T02:25:39.977Z,12.11
2018-05-01T02:25:44.085Z,12.12
2018-05-01T02:25:48.193Z,12.04
2018-05-01T02:25:52.506Z,12.04
2018-05-01T02:25:56.616Z,12.07
2018-05-01T02:26:00.728Z,12.12
2018-05-01T02:26:04.825Z,12.07
2018-05-01T02:26:09.145Z,12.13
2018-05-01T02:26:13.254Z,12.11
2018-05-01T02:26:17.590Z,12.13
2018-05-01T02:26:21.977Z,12.16
2018-05-01T02:26:26.203Z,12.04
2018-05-01T02:26:30.406Z,12.12
2018-05-01T02:26:34.719Z,12.05
2018-05-01T02:26:38.934Z,12.13
2018-05-01T02:26:43.146Z,12.15
2018-05-01T02:26:47.356Z,12.15
2018-05-01T02:26:51.454Z,12.08
2018-05-01T02:26:55.553Z,12.11
2018-05-01T02:26:59.762Z,12.05
2018-05-01T02:27:03.863Z,12.04
2018-05-01T02:27:08.069Z,12.16
2018-05-01T02:27:12.279Z,12.03
2018-05-01T02:27:16.491Z,12.04
2018-05-01T02:27:20.597Z,12.18
2018-05-01T02:27:24.696Z,12.04
2018-05-01T02:27:28.700Z,12.05
2018-05-01T02:27:33.023Z,12.03
2018-05-01T02:27:37.234Z,12.11
2018-05-01T02:27:41.335Z,12.05
2018-05-01T02:27:45.548Z,12.05
2018-05-01T02:27:49.758Z,12.13
2018-05-01T02:27:53.965Z,12.13
2018-05-01T02:27:58.292Z,12.15
2018-05-01T02:28:02.546Z,12.07
2018-05-01T02:28:06.753Z,12.11
2018-05-01T02:28:10.864Z,12.03
2018-05-01T02:28:15.184Z,12.05
2018-05-01T02:28:19.284Z,12.08
2018-05-01T02:28:23.495Z,12.13
2018-05-01T02:28:27.712Z,12.04
2018-05-01T02:28:32.026Z,12.05
2018-05-01T02:28:36.128Z,12.16
2018-05-01T02:28:40.345Z,12.08
2018-05-01T02:28:44.658Z,12.12
2018-05-01T02:28:48.866Z,12.03
2018-05-01T02:28:53.083Z,12.07
2018-05-01T02:28:57.292Z,12.15
2018-05-01T02:29:01.503Z,12.08
2018-05-01T02:29:05.608Z,12.05
2018-05-01T02:29:09.609Z,12.15
2018-05-01T02:29:13.932Z,12.08
2018-05-01T02:29:18.155Z,12.16
2018-05-01T02:29:22.147Z,12.11
2018-05-01T02:29:26.250Z,12.07
2018-05-01T02:29:30.567Z,12.01
2018-05-01T02:29:34.671Z,12.13
2018-05-01T02:29:38.677Z,12.11
2018-05-01T02:29:43.077Z,12.08
2018-05-01T02:29:47.282Z,12.05
2018-05-01T02:29:51.385Z,12.15
2018-05-01T02:29:55.486Z,12.01
2018-05-01T02:29:59.699Z,12.13
2018-05-01T02:30:03.593Z,12.07
2018-05-01T02:30:07.931Z,12.04
2018-05-01T02:30:12.149Z,12.16
2018-05-01T02:30:16.259Z,12.12
2018-05-01T02:30:20.595Z,12.13
2018-05-01T02:30:24.917Z,12.05
2018-05-01T02:30:29.139Z,12.13
2018-05-01T02:30:33.362Z,12.13
2018-05-01T02:30:37.680Z,12.19
2018-05-01T02:30:41.792Z,12.15
2018-05-01T02:30:46.001Z,12.13
2018-05-01T02:30:50.107Z,12.18
2018-05-01T02:30:54.219Z,12.16
2018-05-01T02:30:58.563Z,12.12
2018-05-01T02:31:02.693Z,12.18
2018-05-01T02:31:06.709Z,12.08
2018-05-01T02:31:11.047Z,12.16
2018-05-01T02:31:15.459Z,12.15
2018-05-01T02:31:19.806Z,12.13
2018-05-01T02:31:24.142Z,12.13
2018-05-01T02:31:28.358Z,12.16
2018-05-01T02:31:32.356Z,12.16
2018-05-01T02:31:36.585Z,12.12
2018-05-01T02:31:40.914Z,12.18
2018-05-01T02:31:45.239Z,12.12
2018-05-01T02:31:49.557Z,12.13
2018-05-01T02:31:53.877Z,12.16
2018-05-01T02:31:58.234Z,12.16
2018-05-01T02:32:02.459Z,12.16
2018-05-01T02:32:06.718Z,12.18
2018-05-01T02:32:10.941Z,12.19
2018-05-01T02:32:15.275Z,12.12
2018-05-01T02:32:19.594Z,12.13
2018-05-01T02:32:23.911Z,12.18
2018-05-01T02:32:28.238Z,12.15
2018-05-01T02:32:32.449Z,12.18
2018-05-01T02:32:36.777Z,12.15
2018-05-01T02:32:41.020Z,12.15
2018-05-01T02:32:45.240Z,12.29
2018-05-01T02:32:49.558Z,12.12
2018-05-01T02:32:53.768Z,12.18
2018-05-01T02:32:58.081Z,12.16
2018-05-01T02:33:02.195Z,12.16
2018-05-01T02:33:06.414Z,12.16
2018-05-01T02:33:10.519Z,12.21
2018-05-01T02:33:14.851Z,12.18
2018-05-01T02:33:19.177Z,12.19
2018-05-01T02:33:23.394Z,12.19
2018-05-01T02:33:27.603Z,12.15
2018-05-01T02:33:31.920Z,12.16
2018-05-01T02:33:36.243Z,12.22
2018-05-01T02:33:40.563Z,12.22
2018-05-01T02:33:44.890Z,12.16
2018-05-01T02:33:49.230Z,12.19
2018-05-01T02:33:53.454Z,12.18
2018-05-01T02:33:57.767Z,12.22
2018-05-01T02:34:01.898Z,12.26
2018-05-01T02:34:06.252Z,12.22
2018-05-01T02:34:10.601Z,12.29
2018-05-01T02:34:14.930Z,12.22
2018-05-01T02:34:19.254Z,12.13
2018-05-01T02:34:23.577Z,12.23
2018-05-01T02:34:27.687Z,12.19
2018-05-01T02:34:31.898Z,12.21
2018-05-01T02:34:36.218Z,12.22
2018-05-01T02:34:40.548Z,12.21
2018-05-01T02:34:44.865Z,12.15
2018-05-01T02:34:49.195Z,12.29
2018-05-01T02:34:53.517Z,12.22
2018-05-01T02:34:57.939Z,12.22
2018-05-01T02:35:02.045Z,12.26
2018-05-01T02:35:06.159Z,12.26
2018-05-01T02:35:10.480Z,12.22
2018-05-01T02:35:14.802Z,12.19
2018-05-01T02:35:19.019Z,12.22
2018-05-01T02:35:23.023Z,12.18
2018-05-01T02:35:27.318Z,12.22
2018-05-01T02:35:31.648Z,12.21
2018-05-01T02:35:35.861Z,12.22
2018-05-01T02:35:40.187Z,12.23
2018-05-01T02:35:44.602Z,12.26
2018-05-01T02:35:48.831Z,12.23
2018-05-01T02:35:53.159Z,12.21
2018-05-01T02:35:57.566Z,12.19
2018-05-01T02:36:01.787Z,12.21
2018-05-01T02:36:05.922Z,12.21
2018-05-01T02:36:10.241Z,12.19
2018-05-01T02:36:14.561Z,12.15
2018-05-01T02:36:18.897Z,12.21
2018-05-01T02:36:23.223Z,12.25
2018-05-01T02:36:27.443Z,12.3
2018-05-01T02:36:31.658Z,12.25
2018-05-01T02:36:35.988Z,12.23
2018-05-01T02:36:40.234Z,12.26
2018-05-01T02:36:44.553Z,12.23
2018-05-01T02:36:48.936Z,12.22
2018-05-01T02:36:53.254Z,12.22
2018-05-01T02:36:57.579Z,12.3
2018-05-01T02:37:01.815Z,12.29
2018-05-01T02:37:06.310Z,12.23
2018-05-01T02:37:10.528Z,12.29
2018-05-01T02:37:14.858Z,12.23
2018-05-01T02:37:19.183Z,12.34
2018-05-01T02:37:23.394Z,12.18
2018-05-01T02:37:27.735Z,12.3
2018-05-01T02:37:32.056Z,12.23
2018-05-01T02:37:36.271Z,12.22
2018-05-01T02:37:40.489Z,12.18
2018-05-01T02:37:44.702Z,12.31
2018-05-01T02:37:48.811Z,12.23
2018-05-01T02:37:53.020Z,12.21
2018-05-01T02:37:57.240Z,12.25
2018-05-01T02:38:01.561Z,12.19
2018-05-01T02:38:05.882Z,12.3
2018-05-01T02:38:10.120Z,12.22
2018-05-01T02:38:14.453Z,12.25
2018-05-01T02:38:18.567Z,12.25
2018-05-01T02:38:22.906Z,12.29
2018-05-01T02:38:27.022Z,12.18
2018-05-01T02:38:31.340Z,12.23
2018-05-01T02:38:35.560Z,12.26
2018-05-01T02:38:39.768Z,12.26
2018-05-01T02:38:44.131Z,12.25
2018-05-01T02:38:48.465Z,12.25
2018-05-01T02:38:52.683Z,12.31
2018-05-01T02:38:57.011Z,12.38
2018-05-01T02:39:01.230Z,12.34
2018-05-01T02:39:05.550Z,12.34
2018-05-01T02:39:09.777Z,12.37
2018-05-01T02:39:13.882Z,12.25
2018-05-01T02:39:18.132Z,12.3
2018-05-01T02:39:22.450Z,12.33
2018-05-01T02:39:26.658Z,12.31
2018-05-01T02:39:31.005Z,12.31
2018-05-01T02:39:35.220Z,12.29
2018-05-01T02:39:39.637Z,12.31
2018-05-01T02:39:43.970Z,12.31
2018-05-01T02:39:48.287Z,12.31
2018-05-01T02:39:52.719Z,12.36
2018-05-01T02:39:57.048Z,12.38
2018-05-01T02:40:01.151Z,12.33
2018-05-01T02:40:05.490Z,12.33
2018-05-01T02:40:09.597Z,12.33
2018-05-01T02:40:13.700Z,12.31
2018-05-01T02:40:18.032Z,12.34
2018-05-01T02:40:22.348Z,12.4
2018-05-01T02:40:26.448Z,12.29
2018-05-01T02:40:30.766Z,12.31
2018-05-01T02:40:35.096Z,12.33
2018-05-01T02:40:39.414Z,12.29
2018-05-01T02:40:43.736Z,12.36
2018-05-01T02:40:48.055Z,12.26
2018-05-01T02:40:52.371Z,12.36
2018-05-01T02:40:56.591Z,12.31
2018-05-01T02:41:00.921Z,12.29
2018-05-01T02:41:05.163Z,12.36
2018-05-01T02:41:09.665Z,12.36
2018-05-01T02:41:14.195Z,12.31
2018-05-01T02:41:18.892Z,12.34
2018-05-01T02:41:23.833Z,12.36
2018-05-01T02:41:27.736Z,12.34
2018-05-01T02:41:31.946Z,12.34
2018-05-01T02:41:36.260Z,12.4
2018-05-01T02:41:40.374Z,12.36
2018-05-01T02:41:44.485Z,12.38
2018-05-01T02:41:48.810Z,12.36
2018-05-01T02:41:53.133Z,12.4
2018-05-01T02:41:57.454Z,12.36
2018-05-01T02:42:01.784Z,12.37
2018-05-01T02:42:06.002Z,12.36
2018-05-01T02:42:10.112Z,12.34
2018-05-01T02:42:14.437Z,12.4
2018-05-01T02:42:18.765Z,12.34
2018-05-01T02:42:22.981Z,12.36
2018-05-01T02:42:27.200Z,12.36
2018-05-01T02:42:31.418Z,12.36
2018-05-01T02:42:35.741Z,12.36
2018-05-01T02:42:39.950Z,12.46
2018-05-01T02:42:44.162Z,12.48
2018-05-01T02:42:48.496Z,12.34
2018-05-01T02:42:52.719Z,12.43
2018-05-01T02:42:56.929Z,12.46
2018-05-01T02:43:01.248Z,12.31
2018-05-01T02:43:05.474Z,12.37
2018-05-01T02:43:09.804Z,12.46
2018-05-01T02:43:14.031Z,12.31
2018-05-01T02:43:18.138Z,12.44
2018-05-01T02:43:22.348Z,12.46
2018-05-01T02:43:26.340Z,12.41
2018-05-01T02:43:30.557Z,12.41
2018-05-01T02:43:34.779Z,12.43
2018-05-01T02:43:39.001Z,12.46
2018-05-01T02:43:43.417Z,12.4
2018-05-01T02:43:47.635Z,12.44
2018-05-01T02:43:51.958Z,12.36
2018-05-01T02:43:56.168Z,12.36
2018-05-01T02:44:00.491Z,12.43
2018-05-01T02:44:04.608Z,12.43
2018-05-01T02:44:08.941Z,12.36
2018-05-01T02:44:13.260Z,12.34
2018-05-01T02:44:17.359Z,12.48
2018-05-01T02:44:21.685Z,12.41
2018-05-01T02:44:25.903Z,12.43
2018-05-01T02:44:30.227Z,12.44
2018-05-01T02:44:34.446Z,12.34
2018-05-01T02:44:38.781Z,12.37
2018-05-01T02:44:42.998Z,12.36
2018-05-01T02:44:47.240Z,12.43
2018-05-01T02:44:51.485Z,12.41
2018-05-01T02:44:55.805Z,12.44
2018-05-01T02:45:00.018Z,12.43
2018-05-01T02:45:04.387Z,12.46
2018-05-01T02:45:08.725Z,12.37
2018-05-01T02:45:13.038Z,12.41
2018-05-01T02:45:17.159Z,12.34
2018-05-01T02:45:21.485Z,12.44
2018-05-01T02:45:25.709Z,12.38
2018-05-01T02:45:30.041Z,12.38
2018-05-01T02:45:34.260Z,12.49
2018-05-01T02:45:38.268Z,12.37
2018-05-01T02:45:42.589Z,12.46
2018-05-01T02:45:46.801Z,12.37
2018-05-01T02:45:51.024Z,12.37
2018-05-01T02:45:55.342Z,12.34
2018-05-01T02:45:59.567Z,12.48
2018-05-01T02:46:03.786Z,12.44
2018-05-01T02:46:08.024Z,12.37
2018-05-01T02:46:12.346Z,12.46
2018-05-01T02:46:16.562Z,12.48
2018-05-01T02:46:20.770Z,12.44
2018-05-01T02:46:24.985Z,12.48
2018-05-01T02:46:29.317Z,12.48
2018-05-01T02:46:33.657Z,12.43
2018-05-01T02:46:37.981Z,12.48
2018-05-01T02:46:42.308Z,12.44
2018-05-01T02:46:46.534Z,12.38
2018-05-01T02:46:50.743Z,12.48
2018-05-01T02:46:54.964Z,12.48
2018-05-01T02:46:59.301Z,12.48
2018-05-01T02:47:03.572Z,12.48
2018-05-01T02:47:07.798Z,12.48
2018-05-01T02:47:12.017Z,12.51
2018-05-01T02:47:16.343Z,12.48
2018-05-01T02:47:20.560Z,12.48
2018-05-01T02:47:24.881Z,12.48
2018-05-01T02:47:29.099Z,12.51
2018-05-01T02:47:33.430Z,12.37
2018-05-01T02:47:37.768Z,12.46
2018-05-01T02:47:42.103Z,12.44
2018-05-01T02:47:46.325Z,12.49
2018-05-01T02:47:50.440Z,12.52
2018-05-01T02:47:54.659Z,12.48
2018-05-01T02:47:58.767Z,12.49
2018-05-01T02:48:03.089Z,12.49
2018-05-01T02:48:07.318Z,12.48
2018-05-01T02:48:11.526Z,12.46
2018-05-01T02:48:15.762Z,12.49
2018-05-01T02:48:20.062Z,12.54
2018-05-01T02:48:24.384Z,12.49
2018-05-01T02:48:28.702Z,12.48
2018-05-01T02:48:33.033Z,12.54
2018-05-01T02:48:37.246Z,12.48
2018-05-01T02:48:41.574Z,12.48
2018-05-01T02:48:45.904Z,12.48
2018-05-01T02:48:50.222Z,12.48
2018-05-01T02:48:54.539Z,12.46
2018-05-01T02:48:58.754Z,12.48
2018-05-01T02:49:02.865Z,12.48
2018-05-01T02:49:06.973Z,12.48
2018-05-01T02:49:11.195Z,12.46
2018-05-01T02:49:15.514Z,12.44
2018-05-01T02:49:19.724Z,12.51
2018-05-01T02:49:23.730Z,12.48
2018-05-01T02:49:27.944Z,12.51
2018-05-01T02:49:32.300Z,12.44
2018-05-01T02:49:36.619Z,12.44
2018-05-01T02:49:40.938Z,12.44
2018-05-01T02:49:45.325Z,12.48
2018-05-01T02:49:49.665Z,12.44
2018-05-01T02:49:54.009Z,12.38
2018-05-01T02:49:58.357Z,12.46
2018-05-01T02:50:02.569Z,12.49
2018-05-01T02:50:06.786Z,12.48
2018-05-01T02:50:11.110Z,12.44
2018-05-01T02:50:15.524Z,12.44
2018-05-01T02:50:19.844Z,12.43
2018-05-01T02:50:24.074Z,12.48
2018-05-01T02:50:28.412Z,12.48
2018-05-01T02:50:32.303Z,12.49
2018-05-01T02:50:36.649Z,12.52
2018-05-01T02:50:40.986Z,12.48
2018-05-01T02:50:45.233Z,12.46
2018-05-01T02:50:49.558Z,12.48
2018-05-01T02:50:53.893Z,12.48
2018-05-01T02:50:58.109Z,12.44
2018-05-01T02:51:02.448Z,12.44
2018-05-01T02:51:06.442Z,12.44
2018-05-01T02:51:10.781Z,12.48
2018-05-01T02:51:14.901Z,12.49
2018-05-01T02:51:19.116Z,12.37
2018-05-01T02:51:23.439Z,12.44
2018-05-01T02:51:27.772Z,12.48
2018-05-01T02:51:31.875Z,12.48
2018-05-01T02:51:36.206Z,12.44
2018-05-01T02:51:40.529Z,12.48
2018-05-01T02:51:44.746Z,12.48
2018-05-01T02:51:49.064Z,12.4
2018-05-01T02:51:53.381Z,12.48
2018-05-01T02:51:57.711Z,12.46
2018-05-01T02:52:02.183Z,12.41
2018-05-01T02:52:06.075Z,12.44
2018-05-01T02:52:10.310Z,12.44
2018-05-01T02:52:14.659Z,12.48
2018-05-01T02:52:18.690Z,12.41
2018-05-01T02:52:22.903Z,12.46
2018-05-01T02:52:27.026Z,12.48
2018-05-01T02:52:31.375Z,12.49
2018-05-01T02:52:35.734Z,12.48
2018-05-01T02:52:40.052Z,12.46
2018-05-01T02:52:44.174Z,12.44
2018-05-01T02:52:48.507Z,12.48
2018-05-01T02:52:52.609Z,12.46
2018-05-01T02:52:56.738Z,12.48
2018-05-01T02:53:01.064Z,12.48
2018-05-01T02:53:05.080Z,12.44
2018-05-01T02:53:09.078Z,12.44
2018-05-01T02:53:13.401Z,12.48
2018-05-01T02:53:17.720Z,12.48
2018-05-01T02:53:22.044Z,12.48
2018-05-01T02:53:26.373Z,12.41
2018-05-01T02:53:30.624Z,12.4
2018-05-01T02:53:34.947Z,12.44
2018-05-01T02:53:39.172Z,12.48
2018-05-01T02:53:43.494Z,12.48
2018-05-01T02:53:47.816Z,12.48
2018-05-01T02:53:52.147Z,12.52
2018-05-01T02:53:56.463Z,12.46
2018-05-01T02:54:00.565Z,12.48
2018-05-01T02:54:04.672Z,12.48
2018-05-01T02:54:08.883Z,12.44
2018-05-01T02:54:13.099Z,12.38
2018-05-01T02:54:17.425Z,12.4
2018-05-01T02:54:21.646Z,12.37
2018-05-01T02:54:25.647Z,12.37
2018-05-01T02:54:29.864Z,12.36
2018-05-01T02:54:34.200Z,12.34
2018-05-01T02:54:38.408Z,12.37
2018-05-01T02:54:42.625Z,12.43
2018-05-01T02:54:46.956Z,12.36
2018-05-01T02:54:51.278Z,12.44
2018-05-01T02:54:55.603Z,12.36
2018-05-01T02:54:59.833Z,12.33